Divot, Texas
Current Conditions -  °F | °C
As of 1:53 PM on Tuesday 21 Oct 2014 (Local Time) from KCOT Reporting Station
Scattered Clouds Scattered Clouds  
Wind Chill: 86°   Ceiling: Unl
Heat Index: 86°   Visibility: 10mi
Dew Point: 57°   Wind: 9mph
Humidity: 37%   Direction: 50°NE
Pressure: 29.99"   Gusts: NA
Location:  28.7236°N, 99.2694°W
Report Text: KCOT 211853Z AUTO 05008KT 10SM SCT055 30/14 A2999 RMK AO2 SLP146 T03000139
Loading
Personal Weather Stations






























Interactive Weather Map
Tropical Storm Tracking
New forecast layout! Learn more

10-Day Weather Forecast

Advertisements
Track Severe Weather on mobile